sensor_id;sensor_type;location;lat;lon;timestamp;temperature;humidity
2453;DHT22;63678;47.994;7.854;2023-04-19T00:04:08;10.50;99.90
2453;DHT22;63678;47.994;7.854;2023-04-19T00:16:51;10.40;99.90
2453;DHT22;63678;47.994;7.854;2023-04-19T00:19:23;10.50;99.90
2453;DHT22;63678;47.994;7.854;2023-04-19T00:24:28;10.40;99.90
2453;DHT22;63678;47.994;7.854;2023-04-19T00:27:00;10.30;99.90
2453;DHT22;63678;47.994;7.854;2023-04-19T00:29:33;10.20;99.90
2453;DHT22;63678;47.994;7.854;2023-04-19T00:34:38;10.10;99.90
2453;DHT22;63678;47.994;7.854;2023-04-19T00:37:10;9.90;99.90
2453;DHT22;63678;47.994;7.854;2023-04-19T00:39:43;9.80;99.90
2453;DHT22;63678;47.994;7.854;2023-04-19T00:44:50;9.50;99.90
2453;DHT22;63678;47.994;7.854;2023-04-19T00:47:22;9.40;99.90
2453;DHT22;63678;47.994;7.854;2023-04-19T00:49:55;9.40;99.90
2453;DHT22;63678;47.994;7.854;2023-04-19T00:52:28;9.40;99.90
2453;DHT22;63678;47.994;7.854;2023-04-19T00:55:01;9.20;99.90
2453;DHT22;63678;47.994;7.854;2023-04-19T00:57:34;8.90;99.90
2453;DHT22;63678;47.994;7.854;2023-04-19T01:00:08;8.90;99.90
2453;DHT22;63678;47.994;7.854;2023-04-19T01:07:49;9.00;99.90
2453;DHT22;63678;47.994;7.854;2023-04-19T01:10:22;8.90;99.90
2453;DHT22;63678;47.994;7.854;2023-04-19T01:12:54;8.70;99.90
2453;DHT22;63678;47.994;7.854;2023-04-19T01:15:26;8.80;99.90
2453;DHT22;63678;47.994;7.854;2023-04-19T01:17:58;8.80;99.90
2453;DHT22;63678;47.994;7.854;2023-04-19T01:20:31;8.60;99.90
2453;DHT22;63678;47.994;7.854;2023-04-19T01:23:03;8.60;99.90
2453;DHT22;63678;47.994;7.854;2023-04-19T01:28:08;8.70;99.90
2453;DHT22;63678;47.994;7.854;2023-04-19T01:30:41;8.70;99.90
2453;DHT22;63678;47.994;7.854;2023-04-19T01:33:13;8.60;99.90
2453;DHT22;63678;47.994;7.854;2023-04-19T01:35:46;8.60;99.90
2453;DHT22;63678;47.994;7.854;2023-04-19T01:38:19;8.60;99.90
2453;DHT22;63678;47.994;7.854;2023-04-19T01:40:51;8.50;99.90
2453;DHT22;63678;47.994;7.854;2023-04-19T01:48:29;8.50;99.90
2453;DHT22;63678;47.994;7.854;2023-04-19T01:51:01;8.50;99.90
2453;DHT22;63678;47.994;7.854;2023-04-19T01:53:33;8.60;99.90
2453;DHT22;63678;47.994;7.854;2023-04-19T01:56:06;8.70;99.90
2453;DHT22;63678;47.994;7.854;2023-04-19T01:58:39;8.80;99.90
2453;DHT22;63678;47.994;7.854;2023-04-19T02:01:11;8.90;99.90
2453;DHT22;63678;47.994;7.854;2023-04-19T02:03:44;8.80;99.90
2453;DHT22;63678;47.994;7.854;2023-04-19T02:06:17;8.70;99.90
2453;DHT22;63678;47.994;7.854;2023-04-19T02:16:27;8.70;99.90
2453;DHT22;63678;47.994;7.854;2023-04-19T02:18:59;8.80;99.90
2453;DHT22;63678;47.994;7.854;2023-04-19T02:21:32;9.00;99.90
2453;DHT22;63678;47.994;7.854;2023-04-19T02:24:04;9.20;99.90
2453;DHT22;63678;47.994;7.854;2023-04-19T02:26:38;9.20;99.90
2453;DHT22;63678;47.994;7.854;2023-04-19T02:29:11;9.30;99.90
2453;DHT22;63678;47.994;7.854;2023-04-19T02:31:44;9.40;99.90
2453;DHT22;63678;47.994;7.854;2023-04-19T02:36:50;9.40;99.90
2453;DHT22;63678;47.994;7.854;2023-04-19T02:39:22;9.10;99.90
2453;DHT22;63678;47.994;7.854;2023-04-19T02:41:54;9.20;99.90
2453;DHT22;63678;47.994;7.854;2023-04-19T02:44:27;9.00;99.90
2453;DHT22;63678;47.994;7.854;2023-04-19T02:46:59;9.00;99.90
2453;DHT22;63678;47.994;7.854;2023-04-19T02:49:31;9.00;99.90
2453;DHT22;63678;47.994;7.854;2023-04-19T02:52:07;9.00;99.90
2453;DHT22;63678;47.994;7.854;2023-04-19T02:54:42;9.40;99.90
2453;DHT22;63678;47.994;7.854;2023-04-19T02:57:15;9.30;99.90
2453;DHT22;63678;47.994;7.854;2023-04-19T02:59:48;9.10;99.90
2453;DHT22;63678;47.994;7.854;2023-04-19T03:02:20;9.00;99.90
2453;DHT22;63678;47.994;7.854;2023-04-19T03:04:53;8.90;99.90
2453;DHT22;63678;47.994;7.854;2023-04-19T03:07:26;8.80;99.90
2453;DHT22;63678;47.994;7.854;2023-04-19T03:09:58;8.60;99.90
2453;DHT22;63678;47.994;7.854;2023-04-19T03:17:38;8.40;99.90
2453;DHT22;63678;47.994;7.854;2023-04-19T03:20:11;8.30;99.90
2453;DHT22;63678;47.994;7.854;2023-04-19T03:22:44;8.30;99.90
2453;DHT22;63678;47.994;7.854;2023-04-19T03:25:16;8.20;99.90
2453;DHT22;63678;47.994;7.854;2023-04-19T03:27:55;8.10;99.90
2453;DHT22;63678;47.994;7.854;2023-04-19T03:30:47;8.10;99.90
2453;DHT22;63678;47.994;7.854;2023-04-19T03:33:20;8.10;99.90
2453;DHT22;63678;47.994;7.854;2023-04-19T03:35:53;8.00;99.90
2453;DHT22;63678;47.994;7.854;2023-04-19T03:38:26;8.10;99.90
2453;DHT22;63678;47.994;7.854;2023-04-19T03:40:58;8.10;99.90
2453;DHT22;63678;47.994;7.854;2023-04-19T03:51:13;8.70;99.90
2453;DHT22;63678;47.994;7.854;2023-04-19T03:56:22;8.60;99.90
2453;DHT22;63678;47.994;7.854;2023-04-19T03:58:56;8.50;99.90
2453;DHT22;63678;47.994;7.854;2023-04-19T04:01:28;8.50;99.90
2453;DHT22;63678;47.994;7.854;2023-04-19T04:04:01;8.40;99.90
2453;DHT22;63678;47.994;7.854;2023-04-19T04:06:36;8.50;99.90
2453;DHT22;63678;47.994;7.854;2023-04-19T04:09:08;8.50;99.90
2453;DHT22;63678;47.994;7.854;2023-04-19T04:11:41;8.50;99.90
2453;DHT22;63678;47.994;7.854;2023-04-19T04:14:13;8.60;99.90
2453;DHT22;63678;47.994;7.854;2023-04-19T04:16:46;8.50;99.90
2453;DHT22;63678;47.994;7.854;2023-04-19T04:19:20;8.60;99.90
2453;DHT22;63678;47.994;7.854;2023-04-19T04:21:53;8.60;99.90
2453;DHT22;63678;47.994;7.854;2023-04-19T04:24:26;8.60;99.90
2453;DHT22;63678;47.994;7.854;2023-04-19T04:27:21;8.70;99.90
2453;DHT22;63678;47.994;7.854;2023-04-19T04:32:29;8.70;99.90
2453;DHT22;63678;47.994;7.854;2023-04-19T04:35:06;8.60;99.90
2453;DHT22;63678;47.994;7.854;2023-04-19T04:40:19;8.60;99.90
2453;DHT22;63678;47.994;7.854;2023-04-19T04:42:52;8.60;99.90
2453;DHT22;63678;47.994;7.854;2023-04-19T04:45:25;8.50;99.90
2453;DHT22;63678;47.994;7.854;2023-04-19T04:47:57;8.50;99.90
2453;DHT22;63678;47.994;7.854;2023-04-19T04:50:31;8.50;99.90
2453;DHT22;63678;47.994;7.854;2023-04-19T04:53:03;8.50;99.90
2453;DHT22;63678;47.994;7.854;2023-04-19T04:58:09;8.60;99.90
2453;DHT22;63678;47.994;7.854;2023-04-19T05:01:02;8.60;99.90
2453;DHT22;63678;47.994;7.854;2023-04-19T05:03:39;8.80;99.90
2453;DHT22;63678;47.994;7.854;2023-04-19T05:06:16;8.90;99.90
2453;DHT22;63678;47.994;7.854;2023-04-19T05:08:48;9.00;99.90
2453;DHT22;63678;47.994;7.854;2023-04-19T05:11:39;9.10;99.90
2453;DHT22;63678;47.994;7.854;2023-04-19T05:14:11;9.20;99.90
2453;DHT22;63678;47.994;7.854;2023-04-19T05:16:44;9.30;99.90
2453;DHT22;63678;47.994;7.854;2023-04-19T05:19:17;9.30;99.90
2453;DHT22;63678;47.994;7.854;2023-04-19T05:21:55;9.40;99.90
2453;DHT22;63678;47.994;7.854;2023-04-19T05:24:28;9.50;99.90
2453;DHT22;63678;47.994;7.854;2023-04-19T05:29:33;9.50;99.90
2453;DHT22;63678;47.994;7.854;2023-04-19T05:32:07;9.60;99.90
2453;DHT22;63678;47.994;7.854;2023-04-19T05:34:47;9.50;99.90
2453;DHT22;63678;47.994;7.854;2023-04-19T05:37:20;9.60;99.90
2453;DHT22;63678;47.994;7.854;2023-04-19T05:39:55;9.60;99.90
2453;DHT22;63678;47.994;7.854;2023-04-19T05:45:02;9.70;99.90
2453;DHT22;63678;47.994;7.854;2023-04-19T05:47:37;9.70;99.90
2453;DHT22;63678;47.994;7.854;2023-04-19T05:50:28;9.70;99.90
2453;DHT22;63678;47.994;7.854;2023-04-19T05:53:24;9.80;99.90
2453;DHT22;63678;47.994;7.854;2023-04-19T05:55:57;9.80;99.90
2453;DHT22;63678;47.994;7.854;2023-04-19T06:01:02;9.70;99.90
2453;DHT22;63678;47.994;7.854;2023-04-19T06:03:35;9.90;99.90
2453;DHT22;63678;47.994;7.854;2023-04-19T06:06:09;10.00;99.90
2453;DHT22;63678;47.994;7.854;2023-04-19T06:16:35;10.10;99.90
2453;DHT22;63678;47.994;7.854;2023-04-19T06:19:07;10.00;99.90
2453;DHT22;63678;47.994;7.854;2023-04-19T06:21:40;10.00;99.90
2453;DHT22;63678;47.994;7.854;2023-04-19T06:24:12;9.90;99.90
2453;DHT22;63678;47.994;7.854;2023-04-19T06:26:45;9.90;99.90
2453;DHT22;63678;47.994;7.854;2023-04-19T06:36:58;10.40;99.90
2453;DHT22;63678;47.994;7.854;2023-04-19T06:39:30;10.40;99.90
2453;DHT22;63678;47.994;7.854;2023-04-19T06:44:35;10.60;99.90
2453;DHT22;63678;47.994;7.854;2023-04-19T06:52:12;12.20;99.90
2453;DHT22;63678;47.994;7.854;2023-04-19T06:54:48;11.80;99.90
2453;DHT22;63678;47.994;7.854;2023-04-19T06:59:54;11.20;99.90
2453;DHT22;63678;47.994;7.854;2023-04-19T07:04:59;10.90;99.90
2453;DHT22;63678;47.994;7.854;2023-04-19T07:07:32;10.80;99.90
2453;DHT22;63678;47.994;7.854;2023-04-19T07:10:05;10.80;99.90
2453;DHT22;63678;47.994;7.854;2023-04-19T07:12:38;10.80;99.90
2453;DHT22;63678;47.994;7.854;2023-04-19T07:15:11;10.80;99.90
2453;DHT22;63678;47.994;7.854;2023-04-19T07:20:16;10.90;99.90
2453;DHT22;63678;47.994;7.854;2023-04-19T07:22:48;10.90;99.90
2453;DHT22;63678;47.994;7.854;2023-04-19T07:25:20;11.00;99.90
2453;DHT22;63678;47.994;7.854;2023-04-19T07:27:53;11.00;99.90
2453;DHT22;63678;47.994;7.854;2023-04-19T07:30:26;11.10;99.90
2453;DHT22;63678;47.994;7.854;2023-04-19T07:32:58;11.00;99.90
2453;DHT22;63678;47.994;7.854;2023-04-19T07:40:36;11.10;99.90
2453;DHT22;63678;47.994;7.854;2023-04-19T07:43:08;11.20;99.90
2453;DHT22;63678;47.994;7.854;2023-04-19T07:48:14;11.50;99.90
2453;DHT22;63678;47.994;7.854;2023-04-19T07:50:46;11.40;99.90
2453;DHT22;63678;47.994;7.854;2023-04-19T07:53:19;11.70;99.90
2453;DHT22;63678;47.994;7.854;2023-04-19T07:58:24;11.80;99.90
2453;DHT22;63678;47.994;7.854;2023-04-19T08:00:57;12.00;99.90
2453;DHT22;63678;47.994;7.854;2023-04-19T08:03:30;12.00;99.90
2453;DHT22;63678;47.994;7.854;2023-04-19T08:06:05;12.00;99.90
2453;DHT22;63678;47.994;7.854;2023-04-19T08:08:40;12.00;99.90
2453;DHT22;63678;47.994;7.854;2023-04-19T08:11:12;12.10;99.90
2453;DHT22;63678;47.994;7.854;2023-04-19T08:13:46;12.20;99.90
2453;DHT22;63678;47.994;7.854;2023-04-19T08:16:37;12.10;99.90
2453;DHT22;63678;47.994;7.854;2023-04-19T08:19:13;12.00;99.90
2453;DHT22;63678;47.994;7.854;2023-04-19T08:21:45;12.00;99.90
2453;DHT22;63678;47.994;7.854;2023-04-19T08:24:17;11.90;99.90
2453;DHT22;63678;47.994;7.854;2023-04-19T08:26:49;12.10;99.90
2453;DHT22;63678;47.994;7.854;2023-04-19T08:29:25;12.10;99.90
2453;DHT22;63678;47.994;7.854;2023-04-19T08:34:30;12.30;99.90
2453;DHT22;63678;47.994;7.854;2023-04-19T08:37:02;12.40;99.90
2453;DHT22;63678;47.994;7.854;2023-04-19T08:45:02;12.50;99.90
2453;DHT22;63678;47.994;7.854;2023-04-19T08:47:42;12.50;99.90
2453;DHT22;63678;47.994;7.854;2023-04-19T08:50:31;12.60;99.90
2453;DHT22;63678;47.994;7.854;2023-04-19T08:53:16;12.60;99.90
2453;DHT22;63678;47.994;7.854;2023-04-19T08:55:57;12.60;99.90
2453;DHT22;63678;47.994;7.854;2023-04-19T08:58:32;12.50;99.90
2453;DHT22;63678;47.994;7.854;2023-04-19T09:01:24;12.60;99.90
2453;DHT22;63678;47.994;7.854;2023-04-19T09:04:07;12.50;99.90
2453;DHT22;63678;47.994;7.854;2023-04-19T09:06:42;12.60;99.90
2453;DHT22;63678;47.994;7.854;2023-04-19T09:09:18;12.70;99.90
2453;DHT22;63678;47.994;7.854;2023-04-19T09:12:02;12.80;99.90
2453;DHT22;63678;47.994;7.854;2023-04-19T09:19:55;12.80;99.90
2453;DHT22;63678;47.994;7.854;2023-04-19T09:22:27;12.70;99.90
2453;DHT22;63678;47.994;7.854;2023-04-19T09:30:08;12.50;99.90
2453;DHT22;63678;47.994;7.854;2023-04-19T09:35:42;12.50;99.90
2453;DHT22;63678;47.994;7.854;2023-04-19T09:38:15;12.60;99.90
2453;DHT22;63678;47.994;7.854;2023-04-19T09:40:47;12.60;99.90
2453;DHT22;63678;47.994;7.854;2023-04-19T09:43:24;12.70;99.90
2453;DHT22;63678;47.994;7.854;2023-04-19T09:46:34;11.80;99.90
2453;DHT22;63678;47.994;7.854;2023-04-19T09:52:02;12.90;99.90
2453;DHT22;63678;47.994;7.854;2023-04-19T09:57:09;12.90;99.90
2453;DHT22;63678;47.994;7.854;2023-04-19T09:59:41;12.90;99.90
2453;DHT22;63678;47.994;7.854;2023-04-19T10:02:15;13.00;99.90
2453;DHT22;63678;47.994;7.854;2023-04-19T10:10:17;13.10;99.90
2453;DHT22;63678;47.994;7.854;2023-04-19T10:15:46;13.00;99.90
2453;DHT22;63678;47.994;7.854;2023-04-19T10:18:28;12.90;99.90
2453;DHT22;63678;47.994;7.854;2023-04-19T10:21:05;12.90;99.90
2453;DHT22;63678;47.994;7.854;2023-04-19T10:23:38;11.20;99.90
2453;DHT22;63678;47.994;7.854;2023-04-19T10:26:11;12.90;99.90
2453;DHT22;63678;47.994;7.854;2023-04-19T10:28:43;12.80;99.90
2453;DHT22;63678;47.994;7.854;2023-04-19T10:31:18;12.90;99.90
2453;DHT22;63678;47.994;7.854;2023-04-19T10:33:55;12.90;99.90
2453;DHT22;63678;47.994;7.854;2023-04-19T10:36:28;13.00;99.90
2453;DHT22;63678;47.994;7.854;2023-04-19T10:42:12;13.00;99.90
2453;DHT22;63678;47.994;7.854;2023-04-19T10:45:31;12.90;99.90
2453;DHT22;63678;47.994;7.854;2023-04-19T10:48:05;12.90;99.90
2453;DHT22;63678;47.994;7.854;2023-04-19T10:51:04;13.00;99.90
2453;DHT22;63678;47.994;7.854;2023-04-19T10:53:50;13.00;99.90
2453;DHT22;63678;47.994;7.854;2023-04-19T11:07:04;13.20;99.90
2453;DHT22;63678;47.994;7.854;2023-04-19T11:09:43;13.20;99.90
2453;DHT22;63678;47.994;7.854;2023-04-19T11:12:19;13.20;99.90
2453;DHT22;63678;47.994;7.854;2023-04-19T11:14:57;13.10;99.90
2453;DHT22;63678;47.994;7.854;2023-04-19T11:17:31;13.20;99.90
2453;DHT22;63678;47.994;7.854;2023-04-19T11:20:07;13.20;99.90
2453;DHT22;63678;47.994;7.854;2023-04-19T11:22:45;13.30;99.90
2453;DHT22;63678;47.994;7.854;2023-04-19T11:25:21;13.40;99.90
2453;DHT22;63678;47.994;7.854;2023-04-19T11:30:28;13.60;99.90
2453;DHT22;63678;47.994;7.854;2023-04-19T11:35:34;13.70;99.90
2453;DHT22;63678;47.994;7.854;2023-04-19T11:38:06;13.80;99.90
2453;DHT22;63678;47.994;7.854;2023-04-19T11:40:39;13.90;99.90
2453;DHT22;63678;47.994;7.854;2023-04-19T11:43:11;14.00;99.90
2453;DHT22;63678;47.994;7.854;2023-04-19T11:48:16;14.00;99.90
2453;DHT22;63678;47.994;7.854;2023-04-19T11:50:48;13.90;99.90
2453;DHT22;63678;47.994;7.854;2023-04-19T11:53:22;13.90;99.90
2453;DHT22;63678;47.994;7.854;2023-04-19T11:56:02;13.90;99.90
2453;DHT22;63678;47.994;7.854;2023-04-19T11:58:39;13.80;99.90
2453;DHT22;63678;47.994;7.854;2023-04-19T12:01:20;13.80;99.90
2453;DHT22;63678;47.994;7.854;2023-04-19T12:03:54;13.90;99.90
2453;DHT22;63678;47.994;7.854;2023-04-19T12:06:29;13.90;99.90
2453;DHT22;63678;47.994;7.854;2023-04-19T12:09:06;13.90;99.90
2453;DHT22;63678;47.994;7.854;2023-04-19T12:11:45;13.90;99.90
2453;DHT22;63678;47.994;7.854;2023-04-19T12:14:21;13.90;99.90
2453;DHT22;63678;47.994;7.854;2023-04-19T12:17:11;13.90;99.90
2453;DHT22;63678;47.994;7.854;2023-04-19T12:19:46;15.90;99.90
2453;DHT22;63678;47.994;7.854;2023-04-19T12:22:19;13.80;99.90
2453;DHT22;63678;47.994;7.854;2023-04-19T12:24:52;13.80;99.90
2453;DHT22;63678;47.994;7.854;2023-04-19T12:32:30;14.00;99.90
2453;DHT22;63678;47.994;7.854;2023-04-19T12:40:08;14.00;99.90
2453;DHT22;63678;47.994;7.854;2023-04-19T12:42:41;14.00;99.90
2453;DHT22;63678;47.994;7.854;2023-04-19T12:45:13;14.00;99.90
2453;DHT22;63678;47.994;7.854;2023-04-19T12:47:47;14.10;99.90
2453;DHT22;63678;47.994;7.854;2023-04-19T12:50:20;14.10;99.90
2453;DHT22;63678;47.994;7.854;2023-04-19T12:52:52;14.20;99.90
2453;DHT22;63678;47.994;7.854;2023-04-19T13:00:29;14.50;99.90
2453;DHT22;63678;47.994;7.854;2023-04-19T13:03:02;14.60;99.90
2453;DHT22;63678;47.994;7.854;2023-04-19T13:05:35;14.70;99.90
2453;DHT22;63678;47.994;7.854;2023-04-19T13:08:07;14.80;99.90
2453;DHT22;63678;47.994;7.854;2023-04-19T13:13:12;15.20;99.90
2453;DHT22;63678;47.994;7.854;2023-04-19T13:15:44;15.20;99.90
2453;DHT22;63678;47.994;7.854;2023-04-19T13:18:17;15.20;99.90
2453;DHT22;63678;47.994;7.854;2023-04-19T13:20:50;15.30;99.90
2453;DHT22;63678;47.994;7.854;2023-04-19T13:23:24;15.20;99.90
2453;DHT22;63678;47.994;7.854;2023-04-19T13:25:57;15.00;99.90
2453;DHT22;63678;47.994;7.854;2023-04-19T13:31:03;14.90;99.90
2453;DHT22;63678;47.994;7.854;2023-04-19T13:33:36;14.70;99.90
2453;DHT22;63678;47.994;7.854;2023-04-19T13:36:08;14.60;99.90
2453;DHT22;63678;47.994;7.854;2023-04-19T13:38:41;14.50;99.90
2453;DHT22;63678;47.994;7.854;2023-04-19T13:41:13;14.50;99.90
2453;DHT22;63678;47.994;7.854;2023-04-19T13:43:46;14.60;99.90
2453;DHT22;63678;47.994;7.854;2023-04-19T13:46:18;14.60;99.90
2453;DHT22;63678;47.994;7.854;2023-04-19T13:48:51;14.50;99.90
2453;DHT22;63678;47.994;7.854;2023-04-19T13:51:23;14.40;99.90
2453;DHT22;63678;47.994;7.854;2023-04-19T13:53:55;14.40;99.90
2453;DHT22;63678;47.994;7.854;2023-04-19T13:56:28;14.40;99.90
2453;DHT22;63678;47.994;7.854;2023-04-19T13:59:00;14.40;99.90
2453;DHT22;63678;47.994;7.854;2023-04-19T14:01:33;14.30;99.90
2453;DHT22;63678;47.994;7.854;2023-04-19T14:04:06;14.30;99.90
2453;DHT22;63678;47.994;7.854;2023-04-19T14:06:39;14.20;99.90
2453;DHT22;63678;47.994;7.854;2023-04-19T14:09:11;14.10;99.90
2453;DHT22;63678;47.994;7.854;2023-04-19T14:11:43;14.10;99.90
2453;DHT22;63678;47.994;7.854;2023-04-19T14:14:15;14.10;99.90
2453;DHT22;63678;47.994;7.854;2023-04-19T14:19:21;14.00;99.90
2453;DHT22;63678;47.994;7.854;2023-04-19T14:21:54;14.00;99.90
2453;DHT22;63678;47.994;7.854;2023-04-19T14:24:26;14.00;99.90
2453;DHT22;63678;47.994;7.854;2023-04-19T14:26:59;14.00;99.90
2453;DHT22;63678;47.994;7.854;2023-04-19T14:29:42;14.10;99.90
2453;DHT22;63678;47.994;7.854;2023-04-19T14:34:58;14.10;99.90
2453;DHT22;63678;47.994;7.854;2023-04-19T14:40:04;14.10;99.90
2453;DHT22;63678;47.994;7.854;2023-04-19T14:45:09;14.30;99.90
2453;DHT22;63678;47.994;7.854;2023-04-19T14:47:42;14.30;99.90
2453;DHT22;63678;47.994;7.854;2023-04-19T14:52:47;14.40;99.90
2453;DHT22;63678;47.994;7.854;2023-04-19T14:55:19;14.40;99.90
2453;DHT22;63678;47.994;7.854;2023-04-19T15:03:00;14.60;99.90
2453;DHT22;63678;47.994;7.854;2023-04-19T15:05:35;14.60;99.90
2453;DHT22;63678;47.994;7.854;2023-04-19T15:08:08;14.70;99.90
2453;DHT22;63678;47.994;7.854;2023-04-19T15:10:58;14.80;99.90
2453;DHT22;63678;47.994;7.854;2023-04-19T15:13:30;14.80;99.90
2453;DHT22;63678;47.994;7.854;2023-04-19T15:16:03;14.80;99.90
2453;DHT22;63678;47.994;7.854;2023-04-19T15:21:09;14.80;99.90
2453;DHT22;63678;47.994;7.854;2023-04-19T15:23:41;15.00;99.90
2453;DHT22;63678;47.994;7.854;2023-04-19T15:26:14;15.00;99.90
2453;DHT22;63678;47.994;7.854;2023-04-19T15:28:47;15.20;99.90
2453;DHT22;63678;47.994;7.854;2023-04-19T15:31:19;15.40;99.90
2453;DHT22;63678;47.994;7.854;2023-04-19T15:33:52;15.60;99.90
2453;DHT22;63678;47.994;7.854;2023-04-19T15:36:26;15.60;99.90
2453;DHT22;63678;47.994;7.854;2023-04-19T15:38:58;15.70;99.90
2453;DHT22;63678;47.994;7.854;2023-04-19T15:41:31;15.60;99.90
2453;DHT22;63678;47.994;7.854;2023-04-19T15:44:03;15.20;99.90
2453;DHT22;63678;47.994;7.854;2023-04-19T15:46:35;15.10;99.90
2453;DHT22;63678;47.994;7.854;2023-04-19T15:49:08;15.00;99.90
2453;DHT22;63678;47.994;7.854;2023-04-19T15:51:40;14.80;99.90
2453;DHT22;63678;47.994;7.854;2023-04-19T15:54:13;14.80;99.90
2453;DHT22;63678;47.994;7.854;2023-04-19T15:56:48;14.70;99.90
2453;DHT22;63678;47.994;7.854;2023-04-19T16:01:53;14.50;99.90
2453;DHT22;63678;47.994;7.854;2023-04-19T16:04:25;14.40;99.90
2453;DHT22;63678;47.994;7.854;2023-04-19T16:06:58;14.30;99.90
2453;DHT22;63678;47.994;7.854;2023-04-19T16:09:30;14.30;99.90
2453;DHT22;63678;47.994;7.854;2023-04-19T16:12:03;14.20;99.90
2453;DHT22;63678;47.994;7.854;2023-04-19T16:14:35;14.20;99.90
2453;DHT22;63678;47.994;7.854;2023-04-19T16:19:40;14.00;99.90
2453;DHT22;63678;47.994;7.854;2023-04-19T16:22:13;14.10;99.90
2453;DHT22;63678;47.994;7.854;2023-04-19T16:27:18;13.90;99.90
2453;DHT22;63678;47.994;7.854;2023-04-19T16:29:50;13.90;99.90
2453;DHT22;63678;47.994;7.854;2023-04-19T16:37:28;13.60;99.90
2453;DHT22;63678;47.994;7.854;2023-04-19T16:40:04;13.50;99.90
2453;DHT22;63678;47.994;7.854;2023-04-19T16:45:13;13.30;99.90
2453;DHT22;63678;47.994;7.854;2023-04-19T16:47:46;13.30;99.90
2453;DHT22;63678;47.994;7.854;2023-04-19T16:50:19;13.00;99.90
2453;DHT22;63678;47.994;7.854;2023-04-19T16:52:51;12.90;99.90
2453;DHT22;63678;47.994;7.854;2023-04-19T16:55:23;12.60;99.90
2453;DHT22;63678;47.994;7.854;2023-04-19T16:57:55;12.60;99.90
2453;DHT22;63678;47.994;7.854;2023-04-19T17:00:28;12.60;99.90
2453;DHT22;63678;47.994;7.854;2023-04-19T17:03:00;12.30;99.90
2453;DHT22;63678;47.994;7.854;2023-04-19T17:08:05;12.20;99.90
2453;DHT22;63678;47.994;7.854;2023-04-19T17:10:37;12.00;99.90
2453;DHT22;63678;47.994;7.854;2023-04-19T17:15:42;11.80;99.90
2453;DHT22;63678;47.994;7.854;2023-04-19T17:18:14;11.80;99.90
2453;DHT22;63678;47.994;7.854;2023-04-19T17:20:46;11.70;99.90
2453;DHT22;63678;47.994;7.854;2023-04-19T17:23:18;11.60;99.90
2453;DHT22;63678;47.994;7.854;2023-04-19T17:25:51;11.50;99.90
2453;DHT22;63678;47.994;7.854;2023-04-19T17:30:56;11.20;99.90
2453;DHT22;63678;47.994;7.854;2023-04-19T17:36:01;11.10;99.90
2453;DHT22;63678;47.994;7.854;2023-04-19T17:38:34;11.00;99.90
2453;DHT22;63678;47.994;7.854;2023-04-19T17:41:07;11.00;99.90
2453;DHT22;63678;47.994;7.854;2023-04-19T17:43:46;11.00;99.90
2453;DHT22;63678;47.994;7.854;2023-04-19T17:51:26;10.80;99.90
2453;DHT22;63678;47.994;7.854;2023-04-19T17:53:58;10.80;99.90
2453;DHT22;63678;47.994;7.854;2023-04-19T17:59:03;10.80;99.90
2453;DHT22;63678;47.994;7.854;2023-04-19T18:01:35;10.80;99.90
2453;DHT22;63678;47.994;7.854;2023-04-19T18:04:07;10.70;99.90
2453;DHT22;63678;47.994;7.854;2023-04-19T18:06:40;10.80;99.90
2453;DHT22;63678;47.994;7.854;2023-04-19T18:11:45;10.80;99.90
2453;DHT22;63678;47.994;7.854;2023-04-19T18:14:18;10.80;99.90
2453;DHT22;63678;47.994;7.854;2023-04-19T18:19:23;10.80;99.90
2453;DHT22;63678;47.994;7.854;2023-04-19T18:21:56;10.90;99.90
2453;DHT22;63678;47.994;7.854;2023-04-19T18:29:35;10.60;99.90
2453;DHT22;63678;47.994;7.854;2023-04-19T18:32:07;10.80;99.90
2453;DHT22;63678;47.994;7.854;2023-04-19T18:34:39;10.80;99.90
2453;DHT22;63678;47.994;7.854;2023-04-19T18:37:15;11.80;99.90
2453;DHT22;63678;47.994;7.854;2023-04-19T18:39:48;11.20;99.90
2453;DHT22;63678;47.994;7.854;2023-04-19T18:42:20;11.00;99.90
2453;DHT22;63678;47.994;7.854;2023-04-19T18:44:52;10.80;99.90
2453;DHT22;63678;47.994;7.854;2023-04-19T18:47:25;10.70;99.90
2453;DHT22;63678;47.994;7.854;2023-04-19T18:55:09;10.40;99.90
2453;DHT22;63678;47.994;7.854;2023-04-19T18:57:42;10.20;99.90
2453;DHT22;63678;47.994;7.854;2023-04-19T19:00:15;10.10;99.90
2453;DHT22;63678;47.994;7.854;2023-04-19T19:02:48;10.00;99.90
2453;DHT22;63678;47.994;7.854;2023-04-19T19:07:55;9.80;99.90
2453;DHT22;63678;47.994;7.854;2023-04-19T19:13:02;9.80;99.90
2453;DHT22;63678;47.994;7.854;2023-04-19T19:15:35;9.70;99.90
2453;DHT22;63678;47.994;7.854;2023-04-19T19:18:08;9.70;99.90
2453;DHT22;63678;47.994;7.854;2023-04-19T19:20:40;9.70;99.90
2453;DHT22;63678;47.994;7.854;2023-04-19T19:23:13;9.70;99.90
2453;DHT22;63678;47.994;7.854;2023-04-19T19:25:48;9.70;99.90
2453;DHT22;63678;47.994;7.854;2023-04-19T19:28:21;9.60;99.90
2453;DHT22;63678;47.994;7.854;2023-04-19T19:30:54;9.60;99.90
2453;DHT22;63678;47.994;7.854;2023-04-19T19:33:26;9.60;99.90
2453;DHT22;63678;47.994;7.854;2023-04-19T19:35:59;9.60;99.90
2453;DHT22;63678;47.994;7.854;2023-04-19T19:38:34;9.50;99.90
2453;DHT22;63678;47.994;7.854;2023-04-19T19:41:07;9.50;99.90
2453;DHT22;63678;47.994;7.854;2023-04-19T19:43:59;9.40;99.90
2453;DHT22;63678;47.994;7.854;2023-04-19T19:46:31;9.30;99.90
2453;DHT22;63678;47.994;7.854;2023-04-19T19:49:04;9.30;99.90
2453;DHT22;63678;47.994;7.854;2023-04-19T19:54:28;9.20;99.90
2453;DHT22;63678;47.994;7.854;2023-04-19T19:57:01;9.30;99.90
2453;DHT22;63678;47.994;7.854;2023-04-19T20:02:09;9.20;99.90
2453;DHT22;63678;47.994;7.854;2023-04-19T20:04:41;9.10;99.90
2453;DHT22;63678;47.994;7.854;2023-04-19T20:07:14;9.10;99.90
2453;DHT22;63678;47.994;7.854;2023-04-19T20:09:49;9.00;99.90
2453;DHT22;63678;47.994;7.854;2023-04-19T20:17:28;8.70;99.90
2453;DHT22;63678;47.994;7.854;2023-04-19T20:20:00;8.70;99.90
2453;DHT22;63678;47.994;7.854;2023-04-19T20:22:34;8.70;99.90
2453;DHT22;63678;47.994;7.854;2023-04-19T20:27:39;8.80;99.90
2453;DHT22;63678;47.994;7.854;2023-04-19T20:30:12;8.90;99.90
2453;DHT22;63678;47.994;7.854;2023-04-19T20:32:44;8.80;99.90
2453;DHT22;63678;47.994;7.854;2023-04-19T20:35:16;8.80;99.90
2453;DHT22;63678;47.994;7.854;2023-04-19T20:37:49;8.80;99.90
2453;DHT22;63678;47.994;7.854;2023-04-19T20:40:21;8.80;99.90
2453;DHT22;63678;47.994;7.854;2023-04-19T20:45:27;8.80;99.90
2453;DHT22;63678;47.994;7.854;2023-04-19T20:53:04;8.70;99.90
2453;DHT22;63678;47.994;7.854;2023-04-19T20:55:37;8.70;99.90
2453;DHT22;63678;47.994;7.854;2023-04-19T20:58:10;8.70;99.90
2453;DHT22;63678;47.994;7.854;2023-04-19T21:00:42;8.80;99.90
2453;DHT22;63678;47.994;7.854;2023-04-19T21:03:14;8.70;99.90
2453;DHT22;63678;47.994;7.854;2023-04-19T21:05:47;8.70;99.90
2453;DHT22;63678;47.994;7.854;2023-04-19T21:08:19;10.90;99.90
2453;DHT22;63678;47.994;7.854;2023-04-19T21:10:51;8.70;99.90
2453;DHT22;63678;47.994;7.854;2023-04-19T21:13:23;8.70;99.90
2453;DHT22;63678;47.994;7.854;2023-04-19T21:15:56;8.60;99.90
2453;DHT22;63678;47.994;7.854;2023-04-19T21:18:28;8.60;99.90
2453;DHT22;63678;47.994;7.854;2023-04-19T21:26:06;8.70;99.90
2453;DHT22;63678;47.994;7.854;2023-04-19T21:31:12;8.60;99.90